createdAt,value
2022-12-11T00:01:35.788Z,101071.34
2022-12-11T00:04:03.260Z,101061.78
2022-12-11T00:06:30.665Z,101062.63
2022-12-11T00:08:58.146Z,101065.25
2022-12-11T00:11:25.869Z,101058.38
2022-12-11T00:13:56.222Z,101058.38
2022-12-11T00:16:26.912Z,101062.69
2022-12-11T00:18:55.631Z,101052.31
2022-12-11T00:21:23.024Z,101047.19
2022-12-11T00:23:50.725Z,101050.66
2022-12-11T00:26:18.306Z,101053.28
2022-12-11T00:28:45.979Z,101050.75
2022-12-11T00:31:17.730Z,101054.22
2022-12-11T00:33:46.283Z,101058.56
2022-12-11T00:36:17.552Z,101059.44
2022-12-11T00:38:44.992Z,101068.03
2022-12-11T00:41:13.002Z,101065.41
2022-12-11T00:43:40.913Z,101061.94
2022-12-11T00:46:08.897Z,101057.59
2022-12-11T00:48:36.421Z,101055.00
2022-12-11T00:51:04.058Z,101055.00
2022-12-11T00:53:31.531Z,101056.78
2022-12-11T00:55:58.994Z,101051.63
2022-12-11T00:58:26.555Z,101051.63
2022-12-11T01:00:54.310Z,101058.56
2022-12-11T01:03:21.891Z,101051.66
2022-12-11T01:05:54.597Z,101053.44
2022-12-11T01:08:22.477Z,101038.75
2022-12-11T01:10:50.083Z,101038.75
2022-12-11T01:13:17.694Z,101039.59
2022-12-11T01:15:45.928Z,101031.00
2022-12-11T01:18:15.437Z,101037.91
2022-12-11T01:20:43.353Z,101026.66
2022-12-11T01:23:13.243Z,101025.78
2022-12-11T01:25:42.028Z,101028.41
2022-12-11T01:28:10.355Z,101041.38
2022-12-11T01:30:37.938Z,101036.22
2022-12-11T01:33:05.515Z,101040.53
2022-12-11T01:35:35.143Z,101038.78
2022-12-11T01:38:02.888Z,101041.34
2022-12-11T01:40:30.448Z,101046.56
2022-12-11T01:42:57.908Z,101044.84
2022-12-11T01:45:33.220Z,101037.09
2022-12-11T01:48:12.416Z,101037.06
2022-12-11T01:50:57.615Z,101039.66
2022-12-11T01:53:33.375Z,101050.00
2022-12-11T01:56:02.097Z,101031.91
2022-12-11T01:58:38.739Z,101031.94
2022-12-11T02:01:06.297Z,101026.75
2022-12-11T02:03:33.861Z,101028.50
2022-12-11T02:06:02.687Z,101030.25
2022-12-11T02:08:30.172Z,101025.91
2022-12-11T02:11:20.249Z,101025.13
2022-12-11T02:14:00.503Z,101032.88
2022-12-11T02:16:50.711Z,101016.47
2022-12-11T02:19:55.808Z,101022.53
2022-12-11T02:23:05.061Z,101017.31
2022-12-11T02:26:22.066Z,101012.97
2022-12-11T02:28:57.390Z,101015.56
2022-12-11T02:32:00.561Z,101006.97
2022-12-11T02:34:41.649Z,101015.59
2022-12-11T02:37:21.442Z,101018.25
2022-12-11T02:39:54.230Z,101014.81
2022-12-11T02:42:27.156Z,101015.66
2022-12-11T02:44:59.087Z,101019.16
2022-12-11T02:47:32.068Z,101013.97
2022-12-11T02:50:03.276Z,101016.56
2022-12-11T02:52:32.365Z,101009.66
2022-12-11T02:55:02.979Z,101007.94
2022-12-11T02:57:42.100Z,101002.78
2022-12-11T03:00:11.141Z,100997.63
2022-12-11T03:02:41.065Z,100998.56
2022-12-11T03:05:12.093Z,100999.44
2022-12-11T03:07:43.742Z,100995.13
2022-12-11T03:10:18.665Z,100987.38
2022-12-11T03:12:53.863Z,100988.22
2022-12-11T03:15:33.864Z,100993.41
2022-12-11T03:18:34.336Z,100996.88
2022-12-11T03:21:06.992Z,100993.44
2022-12-11T03:24:02.775Z,101002.09
2022-12-11T03:26:40.503Z,100983.09
2022-12-11T03:29:23.189Z,100983.09
2022-12-11T03:31:59.010Z,100977.94
2022-12-11T03:34:45.181Z,100972.75
2022-12-11T03:37:15.322Z,100975.34
2022-12-11T03:39:52.114Z,100980.53
2022-12-11T03:42:24.337Z,100979.69
2022-12-11T03:44:56.904Z,100985.75
2022-12-11T03:47:27.601Z,100973.69
2022-12-11T03:49:58.484Z,100976.31
2022-12-11T03:52:29.163Z,100976.31
2022-12-11T03:55:03.075Z,100979.75
2022-12-11T03:57:37.057Z,100975.44
2022-12-11T04:00:10.695Z,100982.38
2022-12-11T04:02:41.999Z,100981.50
2022-12-11T04:05:11.327Z,100978.94
2022-12-11T04:07:38.917Z,100974.63
2022-12-11T04:10:06.648Z,100972.94
2022-12-11T04:12:34.108Z,100972.06
2022-12-11T04:15:02.718Z,100969.50
2022-12-11T04:17:52.418Z,100970.38
2022-12-11T04:20:40.038Z,100962.59
2022-12-11T04:23:33.084Z,100967.75
2022-12-11T04:26:15.770Z,100968.63
2022-12-11T04:28:45.683Z,100968.63
2022-12-11T04:31:17.184Z,100964.34
2022-12-11T04:33:44.782Z,100969.53
2022-12-11T04:36:13.603Z,100961.75
2022-12-11T04:38:41.512Z,100966.13
2022-12-11T04:41:15.918Z,100960.97
2022-12-11T04:43:47.229Z,100960.97
2022-12-11T04:46:19.111Z,100968.72
2022-12-11T04:48:49.262Z,100962.63
2022-12-11T04:51:20.660Z,100967.81
2022-12-11T04:53:48.238Z,100960.97
2022-12-11T04:56:17.058Z,100971.34
2022-12-11T04:58:46.374Z,100966.19
2022-12-11T05:01:20.198Z,100961.00
2022-12-11T05:03:48.017Z,100960.16
2022-12-11T05:06:15.825Z,100967.91
2022-12-11T05:08:45.372Z,100962.72
2022-12-11T05:11:15.979Z,100964.50
2022-12-11T05:13:44.898Z,100967.91
2022-12-11T05:16:16.739Z,100969.66
2022-12-11T05:18:44.838Z,100962.72
2022-12-11T05:21:15.127Z,100967.91
2022-12-11T05:23:43.306Z,100962.72
2022-12-11T05:26:21.276Z,100967.09
2022-12-11T05:28:54.217Z,100962.75
2022-12-11T05:31:26.014Z,100961.91
2022-12-11T05:33:54.268Z,100960.19
2022-12-11T05:36:32.090Z,100961.94
2022-12-11T05:39:01.463Z,100954.13
2022-12-11T05:41:31.386Z,100945.50
2022-12-11T05:43:59.025Z,100946.38
2022-12-11T05:46:30.826Z,100940.31
2022-12-11T05:49:01.532Z,100946.38
2022-12-11T05:51:30.494Z,100933.41
2022-12-11T05:53:59.467Z,100933.41
2022-12-11T05:56:33.357Z,100939.47
2022-12-11T05:59:02.712Z,100935.16
2022-12-11T06:01:50.531Z,100935.19
2022-12-11T06:04:18.058Z,100936.03
2022-12-11T06:06:45.487Z,100939.47
2022-12-11T06:09:17.208Z,100939.47
2022-12-11T06:11:44.509Z,100942.91
2022-12-11T06:14:13.170Z,100943.78
2022-12-11T06:16:40.970Z,100942.91
2022-12-11T06:19:15.091Z,100951.56
2022-12-11T06:21:42.583Z,100944.69
2022-12-11T06:24:12.684Z,100948.13
2022-12-11T06:26:40.231Z,100952.44
2022-12-11T06:29:12.561Z,100951.56
2022-12-11T06:31:40.608Z,100945.50
2022-12-11T06:34:09.187Z,100945.50
2022-12-11T06:36:36.866Z,100952.41
2022-12-11T06:39:04.355Z,100947.19
2022-12-11T06:41:31.830Z,100948.91
2022-12-11T06:43:59.245Z,100952.34
2022-12-11T06:46:26.675Z,100947.97
2022-12-11T06:48:54.115Z,100944.53
2022-12-11T06:51:23.550Z,100947.97
2022-12-11T06:54:05.576Z,100947.09
2022-12-11T06:56:38.817Z,100950.50
2022-12-11T06:59:13.775Z,100951.41
2022-12-11T07:01:51.942Z,100949.69
2022-12-11T07:09:23.409Z,100960.84
2022-12-11T07:12:04.067Z,100959.09
2022-12-11T07:18:36.131Z,100963.41
2022-12-11T07:21:35.980Z,100955.59
2022-12-11T07:24:11.679Z,100957.31
2022-12-11T07:26:45.653Z,100963.38
2022-12-11T07:29:29.526Z,100967.66
2022-12-11T07:32:44.802Z,100965.06
2022-12-11T07:35:12.715Z,100966.84
2022-12-11T07:37:42.638Z,100966.88
2022-12-11T07:40:15.606Z,100980.69
2022-12-11T07:42:46.543Z,100972.94
2022-12-11T07:45:15.687Z,100985.00
2022-12-11T07:47:45.573Z,100988.47
2022-12-11T07:50:15.585Z,100978.09
2022-12-11T07:52:45.273Z,100978.16
2022-12-11T07:55:14.916Z,100976.47
2022-12-11T07:58:14.651Z,100979.94
2022-12-11T08:00:40.673Z,100977.38
2022-12-11T08:03:08.216Z,100978.28
2022-12-11T08:05:57.783Z,100977.41
2022-12-11T08:08:48.321Z,100980.00
2022-12-11T08:11:32.524Z,100986.88
2022-12-11T08:14:19.858Z,100974.75
2022-12-11T08:16:50.390Z,100975.59
2022-12-11T08:19:21.052Z,100974.72
2022-12-11T08:21:51.574Z,100978.19
2022-12-11T08:24:20.837Z,100972.19
2022-12-11T08:26:49.069Z,100970.44
2022-12-11T08:29:18.742Z,100972.19
2022-12-11T08:31:46.220Z,100972.19
2022-12-11T08:34:14.181Z,100968.72
2022-12-11T08:36:41.953Z,100968.75
2022-12-11T08:39:09.563Z,100965.31
2022-12-11T08:41:38.369Z,100971.41
2022-12-11T08:44:06.173Z,100977.47
2022-12-11T08:46:33.944Z,100974.84
2022-12-11T08:49:01.481Z,100968.81
2022-12-11T08:51:30.405Z,100974.84
2022-12-11T08:54:01.108Z,100977.47
2022-12-11T08:56:30.156Z,100967.13
2022-12-11T08:59:01.118Z,100966.22
2022-12-11T09:01:29.369Z,100965.34
2022-12-11T09:03:57.325Z,100972.25
2022-12-11T09:06:27.734Z,100963.63
2022-12-11T09:08:58.380Z,100971.41
2022-12-11T09:11:30.841Z,100968.84
2022-12-11T09:14:03.561Z,100967.97
2022-12-11T09:16:40.094Z,100962.75
2022-12-11T09:19:13.706Z,100960.19
2022-12-11T09:21:42.861Z,100952.44
2022-12-11T09:24:12.547Z,100945.53
2022-12-11T09:26:40.667Z,100947.28
2022-12-11T09:29:08.907Z,100949.88
2022-12-11T09:31:46.920Z,100947.31
2022-12-11T09:34:17.646Z,100945.56
2022-12-11T09:36:45.131Z,100945.63
2022-12-11T09:39:16.278Z,100956.00
2022-12-11T09:42:07.527Z,100960.31
2022-12-11T09:44:50.584Z,100958.53
2022-12-11T09:47:31.817Z,100960.28
2022-12-11T09:50:10.443Z,100949.06
2022-12-11T09:52:53.053Z,100956.00
2022-12-11T09:55:24.630Z,100953.44
2022-12-11T09:58:27.401Z,100961.19
2022-12-11T10:01:22.098Z,100951.72
2022-12-11T10:04:41.432Z,100944.78
2022-12-11T10:07:18.534Z,100949.06
2022-12-11T10:10:03.357Z,100949.06
2022-12-11T10:13:11.690Z,100948.22
2022-12-11T10:16:07.466Z,100943.91
2022-12-11T10:18:36.611Z,100947.34
2022-12-11T10:21:04.546Z,100949.13
2022-12-11T10:23:44.691Z,100947.41
2022-12-11T10:26:19.986Z,100951.75
2022-12-11T10:28:47.919Z,100952.63
2022-12-11T10:31:25.950Z,100945.69
2022-12-11T10:34:04.075Z,100945.72
2022-12-11T10:36:36.866Z,100942.28
2022-12-11T10:39:15.326Z,100943.19
2022-12-11T10:41:48.968Z,100940.59
2022-12-11T10:44:31.328Z,100940.56
2022-12-11T10:47:12.002Z,100935.41
2022-12-11T10:49:53.109Z,100937.13
2022-12-11T10:52:35.072Z,100935.44
2022-12-11T10:55:19.317Z,100933.69
2022-12-11T10:58:06.762Z,100927.63
2022-12-11T11:00:39.608Z,100925.03
2022-12-11T11:03:26.534Z,100931.13
2022-12-11T11:06:14.694Z,100925.06
2022-12-11T11:08:55.615Z,100919.03
2022-12-11T11:11:34.494Z,100918.19
2022-12-11T11:14:05.960Z,100920.78
2022-12-11T11:16:38.893Z,100925.13
2022-12-11T11:19:07.554Z,100919.94
2022-12-11T11:21:35.964Z,100922.59
2022-12-11T11:24:04.191Z,100925.19
2022-12-11T11:27:04.781Z,100916.53
2022-12-11T11:29:30.901Z,100914.84
2022-12-11T11:32:20.151Z,100915.72
2022-12-11T11:34:47.670Z,100907.94
2022-12-11T11:37:31.411Z,100911.41
2022-12-11T11:40:13.444Z,100907.94
2022-12-11T11:43:01.230Z,100910.53
2022-12-11T11:45:43.252Z,100899.28
2022-12-11T11:48:30.504Z,100895.81
2022-12-11T11:50:58.615Z,100902.69
2022-12-11T11:53:37.243Z,100895.78
2022-12-11T11:56:28.748Z,100889.72
2022-12-11T11:59:05.236Z,100882.81
2022-12-11T12:01:33.162Z,100890.59
2022-12-11T12:04:04.197Z,100888.91
2022-12-11T12:06:51.018Z,100888.06
2022-12-11T12:09:54.909Z,100889.81
2022-12-11T12:12:49.347Z,100875.97
2022-12-11T12:15:59.410Z,100878.59
2022-12-11T12:18:59.990Z,100886.38
2022-12-11T12:21:37.606Z,100883.75
2022-12-11T12:24:28.466Z,100878.53
2022-12-11T12:27:50.635Z,100880.28
2022-12-11T12:30:35.374Z,100882.00
2022-12-11T12:33:31.063Z,100876.81
2022-12-11T12:36:17.044Z,100872.50
2022-12-11T12:39:16.392Z,100873.34
2022-12-11T12:42:14.368Z,100868.16
2022-12-11T12:45:03.672Z,100872.50
2022-12-11T12:47:35.181Z,100871.63
2022-12-11T12:50:05.036Z,100873.38
2022-12-11T12:52:40.283Z,100871.66
2022-12-11T12:55:14.096Z,100866.53
2022-12-11T12:57:48.590Z,100861.38
2022-12-11T13:00:37.596Z,100857.97
2022-12-11T13:03:21.072Z,100864.94
2022-12-11T13:06:09.555Z,100858.91
2022-12-11T13:08:50.843Z,100861.53
2022-12-11T13:11:21.422Z,100848.53
2022-12-11T13:14:07.998Z,100857.19
2022-12-11T13:16:43.616Z,100861.44
2022-12-11T13:19:23.055Z,100861.44
2022-12-11T13:22:12.208Z,100865.75
2022-12-11T13:24:51.728Z,100860.50
2022-12-11T13:27:29.778Z,100871.75
2022-12-11T13:30:15.282Z,100870.06
2022-12-11T13:32:52.552Z,100881.31
2022-12-11T13:35:20.740Z,100877.00
2022-12-11T13:37:54.113Z,100871.84
2022-12-11T13:40:27.647Z,100884.81
2022-12-11T13:43:04.074Z,100874.47
2022-12-11T13:45:48.682Z,100875.34
2022-12-11T13:48:27.915Z,100880.50
2022-12-11T13:50:58.995Z,100887.38
2022-12-11T13:53:26.533Z,100880.47
2022-12-11T13:56:07.739Z,100879.63
2022-12-11T13:58:39.161Z,100876.97
2022-12-11T14:01:16.957Z,100875.25
2022-12-11T14:04:09.405Z,100883.91
2022-12-11T14:06:39.731Z,100887.31
2022-12-11T14:09:09.143Z,100874.38
2022-12-11T14:11:41.532Z,100880.44
2022-12-11T14:14:41.202Z,100877.88
2022-12-11T14:17:26.946Z,100879.59
2022-12-11T14:19:59.290Z,100883.91
2022-12-11T14:22:29.822Z,100894.25
2022-12-11T14:25:03.572Z,100883.91
2022-12-11T14:27:31.276Z,100890.81
2022-12-11T14:30:10.637Z,100883.00
2022-12-11T14:32:45.177Z,100879.53
2022-12-11T14:35:30.156Z,100884.69
2022-12-11T14:38:09.056Z,100887.25
2022-12-11T14:40:43.598Z,100888.97
2022-12-11T14:43:25.879Z,100888.97
2022-12-11T14:46:00.740Z,100882.88
2022-12-11T14:48:35.354Z,100891.50
2022-12-11T14:51:10.760Z,100888.91
2022-12-11T14:53:46.484Z,100886.28
2022-12-11T14:56:28.990Z,100888.00
2022-12-11T14:59:09.109Z,100894.94
2022-12-11T15:01:38.605Z,100891.44
2022-12-11T15:04:23.617Z,100893.16
2022-12-11T15:06:52.147Z,100895.69
2022-12-11T15:09:38.437Z,100897.44
2022-12-11T15:12:15.050Z,100894.81
2022-12-11T15:14:51.582Z,100906.91
2022-12-11T15:17:20.792Z,100903.41
2022-12-11T15:20:02.672Z,100905.13
2022-12-11T15:22:32.370Z,100906.78
2022-12-11T15:25:00.669Z,100906.78
2022-12-11T15:27:27.946Z,100903.31
2022-12-11T15:29:55.511Z,100907.59
2022-12-11T15:32:24.168Z,100911.91
2022-12-11T15:35:00.126Z,100909.31
2022-12-11T15:37:38.439Z,100904.97
2022-12-11T15:40:07.653Z,100918.75
2022-12-11T15:42:41.966Z,100912.69
2022-12-11T15:45:18.916Z,100919.56
2022-12-11T15:47:48.077Z,100918.69
2022-12-11T15:50:26.132Z,100923.00
2022-12-11T15:52:55.456Z,100919.53
2022-12-11T15:55:27.212Z,100908.31
2022-12-11T15:57:58.232Z,100917.75
2022-12-11T16:00:27.996Z,100912.56
2022-12-11T16:02:57.850Z,100911.69
2022-12-11T16:05:26.831Z,100908.28
2022-12-11T16:07:56.346Z,100913.44
2022-12-11T16:10:23.775Z,100916.94
2022-12-11T16:12:51.187Z,100908.28
2022-12-11T16:15:23.564Z,100917.78
2022-12-11T16:18:01.224Z,100913.50
2022-12-11T16:20:30.982Z,100923.00
2022-12-11T16:22:59.704Z,100918.72
2022-12-11T16:25:28.057Z,100910.91
2022-12-11T16:28:00.695Z,100910.06
2022-12-11T16:30:29.535Z,100908.28
2022-12-11T16:32:57.212Z,100910.84
2022-12-11T16:35:24.642Z,100913.44
2022-12-11T16:37:54.107Z,100900.50
2022-12-11T16:40:22.842Z,100910.00
2022-12-11T16:42:50.595Z,100905.69
2022-12-11T16:45:25.640Z,100907.44
2022-12-11T16:47:53.340Z,100905.69
2022-12-11T16:50:21.124Z,100897.91
2022-12-11T16:52:48.535Z,100906.56
2022-12-11T16:55:16.021Z,100899.63
2022-12-11T16:57:43.434Z,100905.69
2022-12-11T17:00:14.425Z,100902.22
2022-12-11T17:02:42.011Z,100903.94
2022-12-11T17:05:10.021Z,100903.03
2022-12-11T17:07:38.244Z,100907.34
2022-12-11T17:10:06.412Z,100903.00
2022-12-11T17:12:33.997Z,100903.91
2022-12-11T17:15:01.504Z,100909.09
2022-12-11T17:17:28.919Z,100899.56
2022-12-11T17:19:56.492Z,100899.56
2022-12-11T17:22:23.894Z,100908.16
2022-12-11T17:24:51.357Z,100909.88
2022-12-11T17:27:18.745Z,100910.69
2022-12-11T17:29:49.373Z,100914.06
2022-12-11T17:32:17.661Z,100922.69
2022-12-11T17:34:48.140Z,100920.94
2022-12-11T17:37:15.862Z,100916.59
2022-12-11T17:39:43.672Z,100920.06
2022-12-11T17:42:11.132Z,100920.91
2022-12-11T17:44:38.879Z,100928.66
2022-12-11T17:47:11.110Z,100922.63
2022-12-11T17:49:40.461Z,100914.00
2022-12-11T17:52:08.178Z,100922.63
2022-12-11T17:54:35.636Z,100919.16
2022-12-11T17:57:03.153Z,100919.19
2022-12-11T17:59:30.542Z,100914.88
2022-12-11T18:01:58.200Z,100914.88
2022-12-11T18:04:25.689Z,100923.50
2022-12-11T18:06:53.309Z,100920.03
2022-12-11T18:09:20.718Z,100919.19
2022-12-11T18:11:48.194Z,100918.34
2022-12-11T18:14:17.552Z,100925.25
2022-12-11T18:16:45.255Z,100920.97
2022-12-11T18:19:14.592Z,100925.28
2022-12-11T18:21:45.608Z,100917.53
2022-12-11T18:24:13.059Z,100923.56
2022-12-11T18:26:42.880Z,100916.69
2022-12-11T18:29:10.611Z,100914.09
2022-12-11T18:31:42.603Z,100923.59
2022-12-11T18:34:10.995Z,100916.69
2022-12-11T18:36:40.604Z,100920.13
2022-12-11T18:39:08.046Z,100913.22
2022-12-11T18:41:35.460Z,100927.84
2022-12-11T18:44:09.273Z,100927.00
2022-12-11T18:46:39.311Z,100922.69
2022-12-11T18:49:07.034Z,100910.59
2022-12-11T18:51:34.490Z,100916.63
2022-12-11T18:54:01.922Z,100906.25
2022-12-11T18:56:29.359Z,100920.91
2022-12-11T18:58:56.751Z,100910.53
2022-12-11T19:01:28.878Z,100910.59
2022-12-11T19:04:03.616Z,100908.91
2022-12-11T19:06:35.700Z,100906.31
2022-12-11T19:09:07.405Z,100907.16
2022-12-11T19:11:39.796Z,100916.66
2022-12-11T19:14:08.147Z,100910.53
2022-12-11T19:16:39.517Z,100906.22
2022-12-11T19:19:13.084Z,100910.53
2022-12-11T19:21:42.206Z,100908.81
2022-12-11T19:24:16.277Z,100913.13
2022-12-11T19:26:44.425Z,100907.06
2022-12-11T19:29:28.676Z,100913.13
2022-12-11T19:31:56.611Z,100912.25
2022-12-11T19:34:24.408Z,100914.81
2022-12-11T19:36:52.105Z,100914.81
2022-12-11T19:39:20.035Z,100904.47
2022-12-11T19:41:48.939Z,100909.66
2022-12-11T19:44:16.320Z,100909.69
2022-12-11T19:46:43.738Z,100905.38
2022-12-11T19:49:12.332Z,100907.13
2022-12-11T19:51:42.338Z,100914.88
2022-12-11T19:54:13.816Z,100907.13
2022-12-11T19:56:42.471Z,100908.81
2022-12-11T19:59:16.533Z,100914.00
2022-12-11T20:01:48.052Z,100916.56
2022-12-11T20:04:16.634Z,100908.72
2022-12-11T20:06:46.744Z,100914.75
2022-12-11T20:09:15.435Z,100920.78
2022-12-11T20:11:45.406Z,100915.59
2022-12-11T20:14:22.483Z,100912.16
2022-12-11T20:17:10.902Z,100932.00
2022-12-11T20:19:40.597Z,100925.09
2022-12-11T20:22:09.186Z,100925.09
2022-12-11T20:24:39.885Z,100923.34
2022-12-11T20:27:09.581Z,100924.19
2022-12-11T20:29:37.862Z,100925.91
2022-12-11T20:32:05.582Z,100929.34
2022-12-11T20:34:33.134Z,100928.50
2022-12-11T20:37:00.581Z,100926.78
2022-12-11T20:39:29.036Z,100932.81
2022-12-11T20:41:56.466Z,100925.91
2022-12-11T20:44:26.846Z,100926.78
2022-12-11T20:46:54.638Z,100930.25
2022-12-11T20:49:22.062Z,100929.38
2022-12-11T20:51:49.471Z,100929.38
2022-12-11T20:54:16.928Z,100925.06
2022-12-11T20:56:44.561Z,100925.94
2022-12-11T20:59:12.260Z,100922.47
2022-12-11T21:01:40.905Z,100922.47
2022-12-11T21:04:08.768Z,100927.69
2022-12-11T21:06:40.531Z,100924.22
2022-12-11T21:09:13.261Z,100918.09
2022-12-11T21:11:40.651Z,100925.81
2022-12-11T21:14:08.070Z,100923.25
2022-12-11T21:16:37.750Z,100917.22
2022-12-11T21:19:06.680Z,100912.03
2022-12-11T21:21:42.574Z,100920.63
2022-12-11T21:24:28.312Z,100926.69
2022-12-11T21:26:58.420Z,100924.13
2022-12-11T21:29:29.361Z,100931.06
2022-12-11T21:31:57.410Z,100929.34
2022-12-11T21:34:25.709Z,100931.97
2022-12-11T21:36:56.738Z,100924.22
2022-12-11T21:39:28.236Z,100929.38
2022-12-11T21:41:55.914Z,100926.84
2022-12-11T21:47:10.928Z,100926.88
2022-12-11T21:49:38.477Z,100932.09
2022-12-11T21:52:06.139Z,100925.19
2022-12-11T21:54:33.942Z,100934.69
2022-12-11T21:57:01.518Z,100934.69
2022-12-11T21:59:29.852Z,100932.06
2022-12-11T22:01:57.283Z,100937.22
2022-12-11T22:04:24.752Z,100939.78
2022-12-11T22:06:52.266Z,100943.22
2022-12-11T22:09:19.669Z,100941.50
2022-12-11T22:11:47.858Z,100940.63
2022-12-11T22:14:17.755Z,100944.94
2022-12-11T22:16:45.997Z,100947.56
2022-12-11T22:19:13.716Z,100944.09
2022-12-11T22:21:41.590Z,100948.47
2022-12-11T22:24:09.245Z,100955.41
2022-12-11T22:26:36.709Z,100942.50
2022-12-11T22:29:04.100Z,100943.38
2022-12-11T22:31:31.609Z,100950.25
2022-12-11T22:33:59.045Z,100945.97
2022-12-11T22:36:27.314Z,100939.91
2022-12-11T22:38:55.506Z,100944.25
2022-12-11T22:41:30.166Z,100945.97
2022-12-11T22:43:58.852Z,100946.88
2022-12-11T22:46:30.457Z,100948.59
2022-12-11T22:48:58.606Z,100951.19
2022-12-11T22:51:26.244Z,100954.59
2022-12-11T22:53:53.708Z,100949.34
2022-12-11T22:56:21.383Z,100948.44
2022-12-11T22:58:48.923Z,100944.97
2022-12-11T23:01:21.603Z,100944.16
2022-12-11T23:03:49.366Z,100941.59
2022-12-11T23:06:20.618Z,100944.19
2022-12-11T23:08:48.057Z,100951.13
2022-12-11T23:11:24.355Z,100954.63
2022-12-11T23:13:52.810Z,100955.50
2022-12-11T23:16:22.247Z,100952.94
2022-12-11T23:18:49.849Z,100958.97
2022-12-11T23:21:17.564Z,100954.66
2022-12-11T23:23:45.051Z,100947.75
2022-12-11T23:26:15.148Z,100952.09
2022-12-11T23:28:42.983Z,100952.09
2022-12-11T23:31:11.810Z,100952.09
2022-12-11T23:33:39.732Z,100949.50
2022-12-11T23:36:08.744Z,100947.72
2022-12-11T23:38:36.549Z,100948.56
2022-12-11T23:41:08.299Z,100945.09
2022-12-11T23:43:37.110Z,100958.91
2022-12-11T23:46:12.477Z,100951.97
2022-12-11T23:48:40.223Z,100952.81
2022-12-11T23:51:09.702Z,100959.72
2022-12-11T23:53:37.205Z,100951.06
2022-12-11T23:56:11.093Z,100948.47
2022-12-11T23:58:39.228Z,100952.81
